Airfield :
LOGIN :

Register | Disclaimer

   EN    FR    IT 

 










Legend :    VFR   Marginal VFR   IFR   Intensive IFR   Very Intensive IFR
Visi :
Ceiling :
>= 8 km
>= 3000ft
5 to 8 km
1000 to 3000 ft
1500m to 5 km
500 to 1000 ft
800 to 1500m
200 to 500 ft
< 800m
< 200 ft
Symbols :   Thunderstorms  Fog  Heavy snow  Heavy precipitations  Wind > 20 kt
SIGMETs :     Misc.  Thunderstorms  Icing  Turbulence  Mountain Waves  Volcanic Ashes






- Airport Elevation : 1106 ft


LFSO - Nancy / Ochey

CURRENT METAR :
  • 012230Z AUTO VRB02KT CAVOK 13/08 Q1023

EXPIRED METARs :
  • 011630Z AUTO 27007KT 240V320 CAVOK 22/09 Q1021
  • 012200Z AUTO VRB01KT CAVOK 14/08 Q1023
  • 012130Z AUTO 03002KT CAVOK 14/08 Q1023
  • 012100Z AUTO VRB02KT CAVOK 15/08 Q1023
  • 012030Z AUTO 00000KT CAVOK 15/08 Q1023
  • 010530Z AUTO 19004KT 160V220 9999 FEW020 SCT030 BKN036 12/11 Q1020 TEMPO BKN007
  • 012000Z AUTO 30003KT CAVOK 16/07 Q1022

TAF TAF LFSO
Valid from the 01 at 15:00 until the 02 at 15:00 UTC


011400Z 0115/0215 29005KT CAVOK
BECMG 0207/0209 09010KT



MET'MAP, your aeronautical weather chart ! - Copyright ORBIFLY December 2007 - Disclaimer

ORBIFLY MET'MAP TEAM :

Programming & Development : Alexandra Zaïnal
Original concept : Baudouin d'Aumeries
Technical & hardware support : Manuel Goepfert
Assistance : Marc-Olivier Méhu




SOURCES & CREDITS :

   NOAA